sensor_id;sensor_type;location;lat;lon;timestamp;temperature;humidity
10581;DHT22;5338;51.500;6.802;2022-12-05T00:00:04;3.10;99.90
10581;DHT22;5338;51.500;6.802;2022-12-05T00:02:32;3.60;99.90
10581;DHT22;5338;51.500;6.802;2022-12-05T00:04:59;2.90;99.90
10581;DHT22;5338;51.500;6.802;2022-12-05T00:07:27;2.90;99.90
10581;DHT22;5338;51.500;6.802;2022-12-05T00:09:55;2.80;99.90
10581;DHT22;5338;51.500;6.802;2022-12-05T00:12:23;2.80;99.90
10581;DHT22;5338;51.500;6.802;2022-12-05T00:14:50;2.70;99.90
10581;DHT22;5338;51.500;6.802;2022-12-05T00:17:18;2.90;99.90
10581;DHT22;5338;51.500;6.802;2022-12-05T00:19:44;2.80;99.90
10581;DHT22;5338;51.500;6.802;2022-12-05T00:22:12;2.80;99.90
10581;DHT22;5338;51.500;6.802;2022-12-05T00:24:39;1.60;99.90
10581;DHT22;5338;51.500;6.802;2022-12-05T00:27:06;2.80;99.90
10581;DHT22;5338;51.500;6.802;2022-12-05T00:29:35;2.60;99.90
10581;DHT22;5338;51.500;6.802;2022-12-05T00:32:02;2.60;99.90
10581;DHT22;5338;51.500;6.802;2022-12-05T00:36:56;3.80;99.90
10581;DHT22;5338;51.500;6.802;2022-12-05T00:39:23;2.90;99.90
10581;DHT22;5338;51.500;6.802;2022-12-05T00:41:50;2.80;99.90
10581;DHT22;5338;51.500;6.802;2022-12-05T00:44:17;2.70;99.90
10581;DHT22;5338;51.500;6.802;2022-12-05T00:46:46;2.70;99.90
10581;DHT22;5338;51.500;6.802;2022-12-05T00:51:43;3.00;99.90
10581;DHT22;5338;51.500;6.802;2022-12-05T00:54:13;2.80;99.90
10581;DHT22;5338;51.500;6.802;2022-12-05T00:56:41;2.80;99.90
10581;DHT22;5338;51.500;6.802;2022-12-05T00:59:13;2.80;99.90
10581;DHT22;5338;51.500;6.802;2022-12-05T01:01:41;3.00;99.90
10581;DHT22;5338;51.500;6.802;2022-12-05T01:04:11;1.20;99.90
10581;DHT22;5338;51.500;6.802;2022-12-05T01:06:40;2.90;99.90
10581;DHT22;5338;51.500;6.802;2022-12-05T01:09:08;2.80;99.90
10581;DHT22;5338;51.500;6.802;2022-12-05T01:11:38;3.00;99.90
10581;DHT22;5338;51.500;6.802;2022-12-05T01:16:35;4.00;99.90
10581;DHT22;5338;51.500;6.802;2022-12-05T01:19:05;2.60;99.90
10581;DHT22;5338;51.500;6.802;2022-12-05T01:21:34;2.80;99.90
10581;DHT22;5338;51.500;6.802;2022-12-05T01:24:01;2.70;99.90
10581;DHT22;5338;51.500;6.802;2022-12-05T01:26:27;2.90;99.90
10581;DHT22;5338;51.500;6.802;2022-12-05T01:28:55;3.00;99.90
10581;DHT22;5338;51.500;6.802;2022-12-05T01:31:24;2.50;99.90
10581;DHT22;5338;51.500;6.802;2022-12-05T01:33:54;2.80;99.90
10581;DHT22;5338;51.500;6.802;2022-12-05T01:38:50;2.70;99.90
10581;DHT22;5338;51.500;6.802;2022-12-05T01:41:19;2.80;99.90
10581;DHT22;5338;51.500;6.802;2022-12-05T01:43:59;2.90;99.90
10581;DHT22;5338;51.500;6.802;2022-12-05T01:46:28;3.00;99.90
10581;DHT22;5338;51.500;6.802;2022-12-05T01:49:01;2.20;99.90
10581;DHT22;5338;51.500;6.802;2022-12-05T01:51:30;2.90;99.90
10581;DHT22;5338;51.500;6.802;2022-12-05T01:54:00;2.80;99.90
10581;DHT22;5338;51.500;6.802;2022-12-05T01:56:28;3.00;99.90
10581;DHT22;5338;51.500;6.802;2022-12-05T01:58:57;3.10;99.90
10581;DHT22;5338;51.500;6.802;2022-12-05T02:01:25;2.90;99.90
10581;DHT22;5338;51.500;6.802;2022-12-05T02:03:55;2.90;99.90
10581;DHT22;5338;51.500;6.802;2022-12-05T02:06:24;2.90;99.90
10581;DHT22;5338;51.500;6.802;2022-12-05T02:08:52;3.00;99.90
10581;DHT22;5338;51.500;6.802;2022-12-05T02:11:20;3.00;99.90
10581;DHT22;5338;51.500;6.802;2022-12-05T02:13:58;2.80;99.90
10581;DHT22;5338;51.500;6.802;2022-12-05T02:16:38;2.90;99.90
10581;DHT22;5338;51.500;6.802;2022-12-05T02:22:17;2.80;99.90
10581;DHT22;5338;51.500;6.802;2022-12-05T02:25:16;3.10;99.90
10581;DHT22;5338;51.500;6.802;2022-12-05T02:28:07;3.10;99.90
10581;DHT22;5338;51.500;6.802;2022-12-05T02:30:38;3.10;99.90
10581;DHT22;5338;51.500;6.802;2022-12-05T02:33:13;2.90;99.90
10581;DHT22;5338;51.500;6.802;2022-12-05T02:35:50;2.90;99.90
10581;DHT22;5338;51.500;6.802;2022-12-05T02:38:26;2.30;99.90
10581;DHT22;5338;51.500;6.802;2022-12-05T02:41:01;2.90;99.90
10581;DHT22;5338;51.500;6.802;2022-12-05T02:43:35;2.90;99.90
10581;DHT22;5338;51.500;6.802;2022-12-05T02:46:08;2.80;99.90
10581;DHT22;5338;51.500;6.802;2022-12-05T02:48:36;2.90;99.90
10581;DHT22;5338;51.500;6.802;2022-12-05T02:51:07;2.80;99.90
10581;DHT22;5338;51.500;6.802;2022-12-05T02:53:36;3.80;99.90
10581;DHT22;5338;51.500;6.802;2022-12-05T02:56:05;3.00;99.90
10581;DHT22;5338;51.500;6.802;2022-12-05T02:58:36;3.10;99.90
10581;DHT22;5338;51.500;6.802;2022-12-05T03:01:08;2.80;99.90
10581;DHT22;5338;51.500;6.802;2022-12-05T03:03:35;3.10;99.90
10581;DHT22;5338;51.500;6.802;2022-12-05T03:06:05;2.90;99.90
10581;DHT22;5338;51.500;6.802;2022-12-05T03:08:41;3.20;99.90
10581;DHT22;5338;51.500;6.802;2022-12-05T03:11:10;2.70;99.90
10581;DHT22;5338;51.500;6.802;2022-12-05T03:13:40;2.20;99.90
10581;DHT22;5338;51.500;6.802;2022-12-05T03:16:13;2.90;99.90
10581;DHT22;5338;51.500;6.802;2022-12-05T03:18:46;2.70;99.90
10581;DHT22;5338;51.500;6.802;2022-12-05T03:21:20;3.00;99.90
10581;DHT22;5338;51.500;6.802;2022-12-05T03:23:53;3.00;99.90
10581;DHT22;5338;51.500;6.802;2022-12-05T03:26:32;3.00;99.90
10581;DHT22;5338;51.500;6.802;2022-12-05T03:29:15;2.70;99.90
10581;DHT22;5338;51.500;6.802;2022-12-05T03:31:52;3.00;99.90
10581;DHT22;5338;51.500;6.802;2022-12-05T03:34:29;3.00;99.90
10581;DHT22;5338;51.500;6.802;2022-12-05T03:37:01;2.70;99.90
10581;DHT22;5338;51.500;6.802;2022-12-05T03:39:32;2.80;99.90
10581;DHT22;5338;51.500;6.802;2022-12-05T03:42:09;2.90;99.90
10581;DHT22;5338;51.500;6.802;2022-12-05T03:44:42;2.90;99.90
10581;DHT22;5338;51.500;6.802;2022-12-05T03:47:18;4.10;99.90
10581;DHT22;5338;51.500;6.802;2022-12-05T03:49:50;3.00;99.90
10581;DHT22;5338;51.500;6.802;2022-12-05T03:52:23;2.70;99.90
10581;DHT22;5338;51.500;6.802;2022-12-05T03:54:55;2.90;99.90
10581;DHT22;5338;51.500;6.802;2022-12-05T03:57:27;3.00;99.90
10581;DHT22;5338;51.500;6.802;2022-12-05T03:59:58;3.10;99.90
10581;DHT22;5338;51.500;6.802;2022-12-05T04:02:32;3.40;99.90
10581;DHT22;5338;51.500;6.802;2022-12-05T04:05:12;3.00;99.90
10581;DHT22;5338;51.500;6.802;2022-12-05T04:07:42;3.10;99.90
10581;DHT22;5338;51.500;6.802;2022-12-05T04:10:14;3.00;99.90
10581;DHT22;5338;51.500;6.802;2022-12-05T04:12:43;3.20;99.90
10581;DHT22;5338;51.500;6.802;2022-12-05T04:15:15;3.00;99.90
10581;DHT22;5338;51.500;6.802;2022-12-05T04:17:48;3.20;99.90
10581;DHT22;5338;51.500;6.802;2022-12-05T04:20:17;3.20;99.90
10581;DHT22;5338;51.500;6.802;2022-12-05T04:23:04;3.30;99.90
10581;DHT22;5338;51.500;6.802;2022-12-05T04:25:35;2.90;99.90
10581;DHT22;5338;51.500;6.802;2022-12-05T04:28:14;2.90;99.90
10581;DHT22;5338;51.500;6.802;2022-12-05T04:30:45;2.90;99.90
10581;DHT22;5338;51.500;6.802;2022-12-05T04:33:16;3.10;99.90
10581;DHT22;5338;51.500;6.802;2022-12-05T04:35:52;3.10;99.90
10581;DHT22;5338;51.500;6.802;2022-12-05T04:38:24;2.80;99.90
10581;DHT22;5338;51.500;6.802;2022-12-05T04:40:56;3.10;99.90
10581;DHT22;5338;51.500;6.802;2022-12-05T04:43:24;3.00;99.90
10581;DHT22;5338;51.500;6.802;2022-12-05T04:45:53;3.10;99.90
10581;DHT22;5338;51.500;6.802;2022-12-05T04:48:25;3.10;99.90
10581;DHT22;5338;51.500;6.802;2022-12-05T04:50:54;2.80;99.90
10581;DHT22;5338;51.500;6.802;2022-12-05T04:53:24;3.10;99.90
10581;DHT22;5338;51.500;6.802;2022-12-05T04:55:54;3.10;99.90
10581;DHT22;5338;51.500;6.802;2022-12-05T04:58:25;3.20;99.90
10581;DHT22;5338;51.500;6.802;2022-12-05T05:00:56;3.20;99.90
10581;DHT22;5338;51.500;6.802;2022-12-05T05:03:30;3.20;99.90
10581;DHT22;5338;51.500;6.802;2022-12-05T05:05:58;3.00;99.90
10581;DHT22;5338;51.500;6.802;2022-12-05T05:08:26;3.20;99.90
10581;DHT22;5338;51.500;6.802;2022-12-05T05:11:12;3.20;99.90
10581;DHT22;5338;51.500;6.802;2022-12-05T05:13:40;2.90;99.90
10581;DHT22;5338;51.500;6.802;2022-12-05T05:16:13;2.90;99.90
10581;DHT22;5338;51.500;6.802;2022-12-05T05:18:44;3.00;99.90
10581;DHT22;5338;51.500;6.802;2022-12-05T05:21:16;2.80;99.90
10581;DHT22;5338;51.500;6.802;2022-12-05T05:23:44;2.30;99.90
10581;DHT22;5338;51.500;6.802;2022-12-05T05:26:11;2.90;99.90
10581;DHT22;5338;51.500;6.802;2022-12-05T05:28:39;4.00;99.90
10581;DHT22;5338;51.500;6.802;2022-12-05T05:31:06;3.10;99.90
10581;DHT22;5338;51.500;6.802;2022-12-05T05:33:34;3.00;99.90
10581;DHT22;5338;51.500;6.802;2022-12-05T05:36:03;3.00;99.90
10581;DHT22;5338;51.500;6.802;2022-12-05T05:38:30;2.90;99.90
10581;DHT22;5338;51.500;6.802;2022-12-05T05:41:02;2.90;99.90
10581;DHT22;5338;51.500;6.802;2022-12-05T05:43:28;3.10;99.90
10581;DHT22;5338;51.500;6.802;2022-12-05T05:45:56;2.90;99.90
10581;DHT22;5338;51.500;6.802;2022-12-05T05:50:50;3.10;99.90
10581;DHT22;5338;51.500;6.802;2022-12-05T05:53:18;3.10;99.90
10581;DHT22;5338;51.500;6.802;2022-12-05T05:55:45;3.20;99.90
10581;DHT22;5338;51.500;6.802;2022-12-05T05:58:12;3.00;99.90
10581;DHT22;5338;51.500;6.802;2022-12-05T06:00:39;3.40;99.90
10581;DHT22;5338;51.500;6.802;2022-12-05T06:03:07;2.10;99.90
10581;DHT22;5338;51.500;6.802;2022-12-05T06:05:34;2.70;99.90
10581;DHT22;5338;51.500;6.802;2022-12-05T06:08:01;3.10;99.90
10581;DHT22;5338;51.500;6.802;2022-12-05T06:10:31;3.10;99.90
10581;DHT22;5338;51.500;6.802;2022-12-05T06:12:59;3.30;99.90
10581;DHT22;5338;51.500;6.802;2022-12-05T06:15:26;3.10;99.90
10581;DHT22;5338;51.500;6.802;2022-12-05T06:17:53;3.20;99.90
10581;DHT22;5338;51.500;6.802;2022-12-05T06:20:19;3.10;99.90
10581;DHT22;5338;51.500;6.802;2022-12-05T06:22:48;2.70;99.90
10581;DHT22;5338;51.500;6.802;2022-12-05T06:25:15;3.10;99.90
10581;DHT22;5338;51.500;6.802;2022-12-05T06:27:44;3.20;99.90
10581;DHT22;5338;51.500;6.802;2022-12-05T06:30:11;3.20;99.90
10581;DHT22;5338;51.500;6.802;2022-12-05T06:35:07;3.10;99.90
10581;DHT22;5338;51.500;6.802;2022-12-05T06:37:40;2.90;99.90
10581;DHT22;5338;51.500;6.802;2022-12-05T06:40:07;3.00;99.90
10581;DHT22;5338;51.500;6.802;2022-12-05T06:42:35;3.00;99.90
10581;DHT22;5338;51.500;6.802;2022-12-05T06:45:03;3.10;99.90
10581;DHT22;5338;51.500;6.802;2022-12-05T06:47:31;3.00;99.90
10581;DHT22;5338;51.500;6.802;2022-12-05T06:49:58;3.10;99.90
10581;DHT22;5338;51.500;6.802;2022-12-05T06:52:25;3.90;99.90
10581;DHT22;5338;51.500;6.802;2022-12-05T06:54:52;3.20;99.90
10581;DHT22;5338;51.500;6.802;2022-12-05T06:57:18;2.90;99.90
10581;DHT22;5338;51.500;6.802;2022-12-05T06:59:46;3.10;99.90
10581;DHT22;5338;51.500;6.802;2022-12-05T07:02:14;3.20;99.90
10581;DHT22;5338;51.500;6.802;2022-12-05T07:04:40;3.00;99.90
10581;DHT22;5338;51.500;6.802;2022-12-05T07:07:07;3.00;99.90
10581;DHT22;5338;51.500;6.802;2022-12-05T07:09:34;3.20;99.90
10581;DHT22;5338;51.500;6.802;2022-12-05T07:12:17;4.20;99.90
10581;DHT22;5338;51.500;6.802;2022-12-05T07:14:45;3.10;99.90
10581;DHT22;5338;51.500;6.802;2022-12-05T07:17:14;3.10;99.90
10581;DHT22;5338;51.500;6.802;2022-12-05T07:19:40;3.10;99.90
10581;DHT22;5338;51.500;6.802;2022-12-05T07:22:09;2.90;99.90
10581;DHT22;5338;51.500;6.802;2022-12-05T07:24:36;3.00;99.90
10581;DHT22;5338;51.500;6.802;2022-12-05T07:27:03;3.10;99.90
10581;DHT22;5338;51.500;6.802;2022-12-05T07:29:30;2.90;99.90
10581;DHT22;5338;51.500;6.802;2022-12-05T07:31:58;2.90;99.90
10581;DHT22;5338;51.500;6.802;2022-12-05T07:34:28;3.10;99.90
10581;DHT22;5338;51.500;6.802;2022-12-05T07:36:54;3.20;99.90
10581;DHT22;5338;51.500;6.802;2022-12-05T07:39:22;3.40;99.90
10581;DHT22;5338;51.500;6.802;2022-12-05T07:41:48;3.20;99.90
10581;DHT22;5338;51.500;6.802;2022-12-05T07:44:16;3.00;99.90
10581;DHT22;5338;51.500;6.802;2022-12-05T07:46:42;3.10;99.90
10581;DHT22;5338;51.500;6.802;2022-12-05T07:49:10;3.20;99.90
10581;DHT22;5338;51.500;6.802;2022-12-05T07:51:38;2.90;99.90
10581;DHT22;5338;51.500;6.802;2022-12-05T07:54:06;3.10;99.90
10581;DHT22;5338;51.500;6.802;2022-12-05T07:56:33;2.90;99.90
10581;DHT22;5338;51.500;6.802;2022-12-05T07:59:00;3.00;99.90
10581;DHT22;5338;51.500;6.802;2022-12-05T08:01:28;2.70;99.90
10581;DHT22;5338;51.500;6.802;2022-12-05T08:03:57;2.90;99.90
10581;DHT22;5338;51.500;6.802;2022-12-05T08:06:26;2.70;99.90
10581;DHT22;5338;51.500;6.802;2022-12-05T08:08:56;2.70;99.90
10581;DHT22;5338;51.500;6.802;2022-12-05T08:11:25;2.70;99.90
10581;DHT22;5338;51.500;6.802;2022-12-05T08:13:53;2.80;99.90
10581;DHT22;5338;51.500;6.802;2022-12-05T08:16:21;2.90;99.90
10581;DHT22;5338;51.500;6.802;2022-12-05T08:18:53;2.70;99.90
10581;DHT22;5338;51.500;6.802;2022-12-05T08:21:20;2.70;99.90
10581;DHT22;5338;51.500;6.802;2022-12-05T08:23:47;2.80;99.90
10581;DHT22;5338;51.500;6.802;2022-12-05T08:26:18;2.60;99.90
10581;DHT22;5338;51.500;6.802;2022-12-05T08:28:46;2.80;99.90
10581;DHT22;5338;51.500;6.802;2022-12-05T08:31:18;2.80;99.90
10581;DHT22;5338;51.500;6.802;2022-12-05T08:33:45;2.80;99.90
10581;DHT22;5338;51.500;6.802;2022-12-05T08:36:14;2.80;99.90
10581;DHT22;5338;51.500;6.802;2022-12-05T08:38:41;2.50;99.90
10581;DHT22;5338;51.500;6.802;2022-12-05T08:41:14;2.70;99.90
10581;DHT22;5338;51.500;6.802;2022-12-05T08:43:46;2.70;99.90
10581;DHT22;5338;51.500;6.802;2022-12-05T08:46:13;2.70;99.90
10581;DHT22;5338;51.500;6.802;2022-12-05T08:48:41;2.60;99.90
10581;DHT22;5338;51.500;6.802;2022-12-05T08:51:09;2.60;99.90
10581;DHT22;5338;51.500;6.802;2022-12-05T08:53:38;2.60;99.90
10581;DHT22;5338;51.500;6.802;2022-12-05T08:56:07;2.60;99.90
10581;DHT22;5338;51.500;6.802;2022-12-05T08:58:34;2.60;99.90
10581;DHT22;5338;51.500;6.802;2022-12-05T09:01:07;2.80;99.90
10581;DHT22;5338;51.500;6.802;2022-12-05T09:03:34;2.40;99.90
10581;DHT22;5338;51.500;6.802;2022-12-05T09:06:05;2.80;99.90
10581;DHT22;5338;51.500;6.802;2022-12-05T09:08:33;2.70;99.90
10581;DHT22;5338;51.500;6.802;2022-12-05T09:11:03;2.80;99.90
10581;DHT22;5338;51.500;6.802;2022-12-05T09:13:31;2.80;99.90
10581;DHT22;5338;51.500;6.802;2022-12-05T09:15:58;2.90;99.90
10581;DHT22;5338;51.500;6.802;2022-12-05T09:18:26;2.60;99.90
10581;DHT22;5338;51.500;6.802;2022-12-05T09:20:53;2.60;99.90
10581;DHT22;5338;51.500;6.802;2022-12-05T09:23:20;2.80;99.90
10581;DHT22;5338;51.500;6.802;2022-12-05T09:25:52;2.80;99.90
10581;DHT22;5338;51.500;6.802;2022-12-05T09:30:57;2.70;99.90
10581;DHT22;5338;51.500;6.802;2022-12-05T09:33:27;2.90;99.90
10581;DHT22;5338;51.500;6.802;2022-12-05T09:35:54;2.90;99.90
10581;DHT22;5338;51.500;6.802;2022-12-05T09:38:21;3.10;99.90
10581;DHT22;5338;51.500;6.802;2022-12-05T09:40:53;3.00;99.90
10581;DHT22;5338;51.500;6.802;2022-12-05T09:43:24;2.90;99.90
10581;DHT22;5338;51.500;6.802;2022-12-05T09:45:56;3.00;99.90
10581;DHT22;5338;51.500;6.802;2022-12-05T09:48:27;3.50;99.90
10581;DHT22;5338;51.500;6.802;2022-12-05T09:50:58;2.90;99.90
10581;DHT22;5338;51.500;6.802;2022-12-05T09:53:27;2.00;99.90
10581;DHT22;5338;51.500;6.802;2022-12-05T09:56:01;3.00;99.90
10581;DHT22;5338;51.500;6.802;2022-12-05T09:58:39;3.10;99.90
10581;DHT22;5338;51.500;6.802;2022-12-05T10:01:22;3.00;99.90
10581;DHT22;5338;51.500;6.802;2022-12-05T10:04:04;3.00;99.90
10581;DHT22;5338;51.500;6.802;2022-12-05T10:06:35;3.20;99.90
10581;DHT22;5338;51.500;6.802;2022-12-05T10:09:13;3.20;99.90
10581;DHT22;5338;51.500;6.802;2022-12-05T10:11:51;3.10;99.90
10581;DHT22;5338;51.500;6.802;2022-12-05T10:14:28;3.20;99.90
10581;DHT22;5338;51.500;6.802;2022-12-05T10:17:06;3.00;99.90
10581;DHT22;5338;51.500;6.802;2022-12-05T10:19:41;3.30;99.90
10581;DHT22;5338;51.500;6.802;2022-12-05T10:22:11;3.40;99.90
10581;DHT22;5338;51.500;6.802;2022-12-05T10:24:41;3.10;99.90
10581;DHT22;5338;51.500;6.802;2022-12-05T10:27:15;3.10;99.90
10581;DHT22;5338;51.500;6.802;2022-12-05T10:29:47;3.20;99.90
10581;DHT22;5338;51.500;6.802;2022-12-05T10:32:20;3.20;99.90
10581;DHT22;5338;51.500;6.802;2022-12-05T10:34:49;3.30;99.90
10581;DHT22;5338;51.500;6.802;2022-12-05T10:37:18;2.90;99.90
10581;DHT22;5338;51.500;6.802;2022-12-05T10:39:45;3.10;99.90
10581;DHT22;5338;51.500;6.802;2022-12-05T10:42:15;3.10;99.90
10581;DHT22;5338;51.500;6.802;2022-12-05T10:44:43;3.10;99.90
10581;DHT22;5338;51.500;6.802;2022-12-05T10:47:11;3.10;99.90
10581;DHT22;5338;51.500;6.802;2022-12-05T10:52:08;3.00;99.90
10581;DHT22;5338;51.500;6.802;2022-12-05T10:54:39;4.60;99.90
10581;DHT22;5338;51.500;6.802;2022-12-05T10:57:20;3.00;99.90
10581;DHT22;5338;51.500;6.802;2022-12-05T10:59:48;3.10;99.90
10581;DHT22;5338;51.500;6.802;2022-12-05T11:02:21;4.10;99.90
10581;DHT22;5338;51.500;6.802;2022-12-05T11:04:51;3.10;99.90
10581;DHT22;5338;51.500;6.802;2022-12-05T11:07:27;3.10;99.90
10581;DHT22;5338;51.500;6.802;2022-12-05T11:09:55;3.20;99.90
10581;DHT22;5338;51.500;6.802;2022-12-05T11:12:23;3.30;99.90
10581;DHT22;5338;51.500;6.802;2022-12-05T11:14:58;3.00;99.90
10581;DHT22;5338;51.500;6.802;2022-12-05T11:17:29;3.10;99.90
10581;DHT22;5338;51.500;6.802;2022-12-05T11:19:57;3.00;99.90
10581;DHT22;5338;51.500;6.802;2022-12-05T11:22:32;3.00;99.90
10581;DHT22;5338;51.500;6.802;2022-12-05T11:24:59;3.60;99.90
10581;DHT22;5338;51.500;6.802;2022-12-05T11:27:29;2.90;99.90
10581;DHT22;5338;51.500;6.802;2022-12-05T11:30:00;3.10;99.90
10581;DHT22;5338;51.500;6.802;2022-12-05T11:32:29;3.10;99.90
10581;DHT22;5338;51.500;6.802;2022-12-05T11:35:04;3.10;99.90
10581;DHT22;5338;51.500;6.802;2022-12-05T11:37:39;3.30;99.90
10581;DHT22;5338;51.500;6.802;2022-12-05T11:40:15;3.20;99.90
10581;DHT22;5338;51.500;6.802;2022-12-05T11:43:02;3.10;99.90
10581;DHT22;5338;51.500;6.802;2022-12-05T11:45:48;3.20;99.90
10581;DHT22;5338;51.500;6.802;2022-12-05T11:48:31;3.10;99.90
10581;DHT22;5338;51.500;6.802;2022-12-05T11:51:10;3.00;99.90
10581;DHT22;5338;51.500;6.802;2022-12-05T11:54:04;2.90;99.90
10581;DHT22;5338;51.500;6.802;2022-12-05T11:56:37;2.90;99.90
10581;DHT22;5338;51.500;6.802;2022-12-05T11:59:25;3.20;99.90
10581;DHT22;5338;51.500;6.802;2022-12-05T12:02:03;3.10;99.90
10581;DHT22;5338;51.500;6.802;2022-12-05T12:04:42;3.30;99.90
10581;DHT22;5338;51.500;6.802;2022-12-05T12:07:22;2.80;99.90
10581;DHT22;5338;51.500;6.802;2022-12-05T12:10:00;3.10;99.90
10581;DHT22;5338;51.500;6.802;2022-12-05T12:12:33;3.00;99.90
10581;DHT22;5338;51.500;6.802;2022-12-05T12:15:12;3.10;99.90
10581;DHT22;5338;51.500;6.802;2022-12-05T12:17:46;3.60;99.90
10581;DHT22;5338;51.500;6.802;2022-12-05T12:20:25;3.00;99.90
10581;DHT22;5338;51.500;6.802;2022-12-05T12:23:10;3.00;99.90
10581;DHT22;5338;51.500;6.802;2022-12-05T12:25:48;3.00;99.90
10581;DHT22;5338;51.500;6.802;2022-12-05T12:28:31;3.00;99.90
10581;DHT22;5338;51.500;6.802;2022-12-05T12:31:08;2.80;99.90
10581;DHT22;5338;51.500;6.802;2022-12-05T12:33:43;2.90;99.90
10581;DHT22;5338;51.500;6.802;2022-12-05T12:36:16;2.90;99.90
10581;DHT22;5338;51.500;6.802;2022-12-05T12:39:03;3.10;99.90
10581;DHT22;5338;51.500;6.802;2022-12-05T12:41:44;2.80;99.90
10581;DHT22;5338;51.500;6.802;2022-12-05T12:44:29;2.90;99.90
10581;DHT22;5338;51.500;6.802;2022-12-05T12:47:03;2.80;99.90
10581;DHT22;5338;51.500;6.802;2022-12-05T12:49:44;2.80;99.90
10581;DHT22;5338;51.500;6.802;2022-12-05T12:52:17;2.70;99.90
10581;DHT22;5338;51.500;6.802;2022-12-05T12:55:00;2.80;99.90
10581;DHT22;5338;51.500;6.802;2022-12-05T12:57:41;2.80;99.90
10581;DHT22;5338;51.500;6.802;2022-12-05T13:00:29;2.80;99.90
10581;DHT22;5338;51.500;6.802;2022-12-05T13:03:02;2.60;99.90
10581;DHT22;5338;51.500;6.802;2022-12-05T13:05:40;3.00;99.90
10581;DHT22;5338;51.500;6.802;2022-12-05T13:08:13;3.20;99.90
10581;DHT22;5338;51.500;6.802;2022-12-05T13:10:43;2.90;99.90
10581;DHT22;5338;51.500;6.802;2022-12-05T13:13:15;2.90;99.90
10581;DHT22;5338;51.500;6.802;2022-12-05T13:15:45;2.90;99.90
10581;DHT22;5338;51.500;6.802;2022-12-05T13:18:15;3.10;99.90
10581;DHT22;5338;51.500;6.802;2022-12-05T13:20:43;2.60;99.90
10581;DHT22;5338;51.500;6.802;2022-12-05T13:23:13;2.60;99.90
10581;DHT22;5338;51.500;6.802;2022-12-05T13:25:43;2.60;99.90
10581;DHT22;5338;51.500;6.802;2022-12-05T13:28:27;2.70;99.90
10581;DHT22;5338;51.500;6.802;2022-12-05T13:30:56;2.60;99.90
10581;DHT22;5338;51.500;6.802;2022-12-05T13:33:31;2.70;99.90
10581;DHT22;5338;51.500;6.802;2022-12-05T13:36:14;2.50;99.90
10581;DHT22;5338;51.500;6.802;2022-12-05T13:39:01;2.70;99.90
10581;DHT22;5338;51.500;6.802;2022-12-05T13:41:50;2.40;99.90
10581;DHT22;5338;51.500;6.802;2022-12-05T13:44:39;2.50;99.90
10581;DHT22;5338;51.500;6.802;2022-12-05T13:47:26;2.50;99.90
10581;DHT22;5338;51.500;6.802;2022-12-05T13:49:59;2.50;99.90
10581;DHT22;5338;51.500;6.802;2022-12-05T13:52:29;2.50;99.90
10581;DHT22;5338;51.500;6.802;2022-12-05T13:55:01;2.70;99.90
10581;DHT22;5338;51.500;6.802;2022-12-05T13:57:45;2.40;99.90
10581;DHT22;5338;51.500;6.802;2022-12-05T14:00:31;2.40;99.90
10581;DHT22;5338;51.500;6.802;2022-12-05T14:03:01;2.50;99.90
10581;DHT22;5338;51.500;6.802;2022-12-05T14:05:51;2.40;99.90
10581;DHT22;5338;51.500;6.802;2022-12-05T14:08:51;2.80;99.90
10581;DHT22;5338;51.500;6.802;2022-12-05T14:11:19;3.10;99.90
10581;DHT22;5338;51.500;6.802;2022-12-05T14:13:47;2.80;99.90
10581;DHT22;5338;51.500;6.802;2022-12-05T14:16:48;2.90;99.90
10581;DHT22;5338;51.500;6.802;2022-12-05T14:19:36;2.60;99.90
10581;DHT22;5338;51.500;6.802;2022-12-05T14:22:22;2.60;99.90
10581;DHT22;5338;51.500;6.802;2022-12-05T14:24:57;2.50;99.90
10581;DHT22;5338;51.500;6.802;2022-12-05T14:27:41;2.30;99.90
10581;DHT22;5338;51.500;6.802;2022-12-05T14:30:21;2.30;99.90
10581;DHT22;5338;51.500;6.802;2022-12-05T14:32:50;2.20;99.90
10581;DHT22;5338;51.500;6.802;2022-12-05T14:35:22;2.10;99.90
10581;DHT22;5338;51.500;6.802;2022-12-05T14:37:53;2.30;99.90
10581;DHT22;5338;51.500;6.802;2022-12-05T14:40:28;2.30;99.90
10581;DHT22;5338;51.500;6.802;2022-12-05T14:42:57;2.30;99.90
10581;DHT22;5338;51.500;6.802;2022-12-05T14:45:28;2.10;99.90
10581;DHT22;5338;51.500;6.802;2022-12-05T14:47:58;2.10;99.90
10581;DHT22;5338;51.500;6.802;2022-12-05T14:50:37;2.30;99.90
10581;DHT22;5338;51.500;6.802;2022-12-05T14:53:26;2.10;99.90
10581;DHT22;5338;51.500;6.802;2022-12-05T14:56:02;2.30;99.90
10581;DHT22;5338;51.500;6.802;2022-12-05T14:58:36;2.10;99.90
10581;DHT22;5338;51.500;6.802;2022-12-05T15:01:07;2.20;99.90
10581;DHT22;5338;51.500;6.802;2022-12-05T15:03:46;2.10;99.90
10581;DHT22;5338;51.500;6.802;2022-12-05T15:06:18;2.00;99.90
10581;DHT22;5338;51.500;6.802;2022-12-05T15:08:49;1.20;99.90
10581;DHT22;5338;51.500;6.802;2022-12-05T15:11:19;2.00;99.90
10581;DHT22;5338;51.500;6.802;2022-12-05T15:13:57;2.10;99.90
10581;DHT22;5338;51.500;6.802;2022-12-05T15:16:27;2.10;99.90
10581;DHT22;5338;51.500;6.802;2022-12-05T15:18:59;2.00;99.90
10581;DHT22;5338;51.500;6.802;2022-12-05T15:21:31;2.00;99.90
10581;DHT22;5338;51.500;6.802;2022-12-05T15:24:01;2.10;99.90
10581;DHT22;5338;51.500;6.802;2022-12-05T15:26:34;2.00;99.90
10581;DHT22;5338;51.500;6.802;2022-12-05T15:29:05;2.00;99.90
10581;DHT22;5338;51.500;6.802;2022-12-05T15:31:35;2.00;99.90
10581;DHT22;5338;51.500;6.802;2022-12-05T15:34:10;2.00;99.90
10581;DHT22;5338;51.500;6.802;2022-12-05T15:36:42;2.20;99.90
10581;DHT22;5338;51.500;6.802;2022-12-05T15:39:18;2.00;99.90
10581;DHT22;5338;51.500;6.802;2022-12-05T15:41:49;2.10;99.90
10581;DHT22;5338;51.500;6.802;2022-12-05T15:44:17;2.00;99.90
10581;DHT22;5338;51.500;6.802;2022-12-05T15:46:50;2.10;99.90
10581;DHT22;5338;51.500;6.802;2022-12-05T15:49:26;2.20;99.90
10581;DHT22;5338;51.500;6.802;2022-12-05T15:52:02;2.00;99.90
10581;DHT22;5338;51.500;6.802;2022-12-05T15:54:34;2.10;99.90
10581;DHT22;5338;51.500;6.802;2022-12-05T15:57:11;2.40;99.90
10581;DHT22;5338;51.500;6.802;2022-12-05T15:59:42;2.20;99.90
10581;DHT22;5338;51.500;6.802;2022-12-05T16:02:15;2.00;99.90
10581;DHT22;5338;51.500;6.802;2022-12-05T16:04:49;2.40;99.90
10581;DHT22;5338;51.500;6.802;2022-12-05T16:07:19;2.20;99.90
10581;DHT22;5338;51.500;6.802;2022-12-05T16:09:46;2.30;99.90
10581;DHT22;5338;51.500;6.802;2022-12-05T16:12:21;2.10;99.90
10581;DHT22;5338;51.500;6.802;2022-12-05T16:14:51;2.20;99.90
10581;DHT22;5338;51.500;6.802;2022-12-05T16:17:19;2.00;99.90
10581;DHT22;5338;51.500;6.802;2022-12-05T16:19:48;2.30;99.90
10581;DHT22;5338;51.500;6.802;2022-12-05T16:22:23;2.20;99.90
10581;DHT22;5338;51.500;6.802;2022-12-05T16:24:55;1.40;99.90
10581;DHT22;5338;51.500;6.802;2022-12-05T16:27:24;2.30;99.90
10581;DHT22;5338;51.500;6.802;2022-12-05T16:30:07;2.20;99.90
10581;DHT22;5338;51.500;6.802;2022-12-05T16:32:35;2.20;99.90
10581;DHT22;5338;51.500;6.802;2022-12-05T16:35:29;2.10;99.90
10581;DHT22;5338;51.500;6.802;2022-12-05T16:38:11;0.70;99.90
10581;DHT22;5338;51.500;6.802;2022-12-05T16:40:40;2.10;99.90
10581;DHT22;5338;51.500;6.802;2022-12-05T16:43:22;2.00;99.90
10581;DHT22;5338;51.500;6.802;2022-12-05T16:45:51;2.30;99.90
10581;DHT22;5338;51.500;6.802;2022-12-05T16:48:23;2.10;99.90
10581;DHT22;5338;51.500;6.802;2022-12-05T16:51:15;2.00;99.90
10581;DHT22;5338;51.500;6.802;2022-12-05T16:53:44;2.10;99.90
10581;DHT22;5338;51.500;6.802;2022-12-05T16:56:14;2.00;99.90